Time;durP1;ratioP1;P1;durP2;ratioP2;P2;SDS_P1;SDS_P2;PMS_P1;PMS_P2;Temp;Humidity;BMP_temperature;BMP_pressure;BME280_temperature;BME280_humidity;BME280_pressure;Samples;Min_cycle;Max_cycle;Signal;HPM_P1;HPM_P2
2022/03/26 00:02:17;;;;;;;9.10;7.07;;;;;;;;;;5042090;28;20035;-80
2022/03/26 00:04:42;;;;;;;8.73;6.70;;;;;;;;;;5042175;28;20036;-81
2022/03/26 00:07:08;;;;;;;10.50;6.75;;;;;;;;;;5059057;28;20064;-81
2022/03/26 00:09:33;;;;;;;8.10;6.43;;;;;;;;;;5059033;28;20040;-81
2022/03/26 00:11:59;;;;;;;10.82;7.65;;;;;;;;;;5058716;28;20044;-81
2022/03/26 00:14:24;;;;;;;10.52;6.93;;;;;;;;;;5082432;28;20036;-81
2022/03/26 00:16:50;;;;;;;9.93;7.25;;;;;;;;;;5058486;28;20059;-81
2022/03/26 00:19:15;;;;;;;9.73;7.45;;;;;;;;;;5058629;28;20059;-80
2022/03/26 00:21:41;;;;;;;9.52;6.75;;;;;;;;;;5058839;28;20066;-81
2022/03/26 00:24:07;;;;;;;9.73;7.40;;;;;;;;;;5091811;28;20119;-81
2022/03/26 00:26:33;;;;;;;10.77;7.70;;;;;;;;;;5058213;28;20395;-81
2022/03/26 00:28:59;;;;;;;9.63;8.05;;;;;;;;;;5058562;28;20119;-80
2022/03/26 00:31:24;;;;;;;10.60;7.85;;;;;;;;;;5058738;28;20490;-80
2022/03/26 00:33:52;;;;;;;9.88;7.82;;;;;;;;;;5075060;28;20046;-80
2022/03/26 00:36:17;;;;;;;11.63;7.55;;;;;;;;;;5089286;28;20040;-81
2022/03/26 00:38:43;;;;;;;10.98;7.40;;;;;;;;;;5074827;28;20035;-81
2022/03/26 00:41:08;;;;;;;10.40;7.38;;;;;;;;;;5058525;28;20028;-80
2022/03/26 00:43:34;;;;;;;8.57;7.38;;;;;;;;;;5058264;28;20387;-81
2022/03/26 00:45:59;;;;;;;10.18;8.02;;;;;;;;;;5091257;28;20403;-80
2022/03/26 00:48:24;;;;;;;11.02;7.97;;;;;;;;;;5057847;28;20169;-81
2022/03/26 00:50:50;;;;;;;10.52;7.68;;;;;;;;;;5058345;28;20402;-81
2022/03/26 00:53:15;;;;;;;9.70;7.55;;;;;;;;;;5057599;28;20110;-80
2022/03/26 00:55:42;;;;;;;10.23;8.30;;;;;;;;;;5039809;28;20375;-81
2022/03/26 00:58:08;;;;;;;8.50;7.60;;;;;;;;;;5071931;28;20036;-81
2022/03/26 01:00:33;;;;;;;9.02;6.88;;;;;;;;;;5077866;28;20091;-81
2022/03/26 01:03:01;;;;;;;11.13;8.00;;;;;;;;;;5077806;28;20405;-80
2022/03/26 01:05:27;;;;;;;8.40;6.80;;;;;;;;;;5078787;28;20088;-81
2022/03/26 01:07:52;;;;;;;8.55;7.45;;;;;;;;;;5094587;28;20111;-81
2022/03/26 01:10:18;;;;;;;10.40;7.97;;;;;;;;;;5061055;28;20489;-81
2022/03/26 01:12:43;;;;;;;8.05;6.90;;;;;;;;;;5077799;28;20036;-81
2022/03/26 01:15:09;;;;;;;9.40;7.75;;;;;;;;;;5077557;28;20394;-80
2022/03/26 01:17:34;;;;;;;9.23;7.50;;;;;;;;;;5094288;28;20039;-81
2022/03/26 01:20:00;;;;;;;9.05;7.72;;;;;;;;;;5061312;28;20040;-81
2022/03/26 01:22:25;;;;;;;10.57;8.27;;;;;;;;;;5060882;28;20450;-81
2022/03/26 01:24:51;;;;;;;9.40;7.72;;;;;;;;;;5060513;28;20062;-81
2022/03/26 01:27:17;;;;;;;8.85;6.95;;;;;;;;;;5077373;28;20164;-81
2022/03/26 01:29:42;;;;;;;9.98;7.88;;;;;;;;;;5076982;28;20054;-81
2022/03/26 01:32:08;;;;;;;8.55;7.65;;;;;;;;;;5077326;28;20099;-81
2022/03/26 01:34:34;;;;;;;9.43;7.20;;;;;;;;;;5094284;28;20043;-81
2022/03/26 01:37:01;;;;;;;11.13;7.93;;;;;;;;;;5077387;28;20040;-81
2022/03/26 01:39:27;;;;;;;10.35;7.28;;;;;;;;;;5061035;28;20081;-81
2022/03/26 01:41:53;;;;;;;9.15;7.38;;;;;;;;;;5077492;28;20043;-81
2022/03/26 01:44:18;;;;;;;9.10;7.13;;;;;;;;;;5077460;28;20031;-81
2022/03/26 01:46:48;;;;;;;8.40;7.15;;;;;;;;;;5077287;28;20463;-81
2022/03/26 01:49:13;;;;;;;8.93;6.95;;;;;;;;;;5060759;28;20043;-81
2022/03/26 01:51:39;;;;;;;8.98;7.63;;;;;;;;;;5090471;28;20131;-81
2022/03/26 01:54:04;;;;;;;11.02;7.72;;;;;;;;;;5073381;28;20060;-81
2022/03/26 01:56:30;;;;;;;11.27;8.43;;;;;;;;;;5040201;28;20165;-81
2022/03/26 01:58:55;;;;;;;12.10;8.73;;;;;;;;;;5061069;28;20019;-81
2022/03/26 02:01:21;;;;;;;9.35;7.65;;;;;;;;;;5077041;28;20122;-81
2022/03/26 02:03:46;;;;;;;8.38;7.38;;;;;;;;;;5077330;28;20036;-81
2022/03/26 02:06:12;;;;;;;9.95;7.97;;;;;;;;;;5077175;28;20036;-81
2022/03/26 02:08:37;;;;;;;11.27;8.30;;;;;;;;;;5076171;28;20028;-80
2022/03/26 02:11:03;;;;;;;9.30;7.68;;;;;;;;;;5077259;28;20031;-81
2022/03/26 02:13:51;;;;;;;10.93;8.13;;;;;;;;;;5057637;28;20043;-80
2022/03/26 02:16:16;;;;;;;8.98;8.07;;;;;;;;;;5040349;28;20032;-81
2022/03/26 02:18:41;;;;;;;11.48;8.25;;;;;;;;;;5039979;28;20089;-80
2022/03/26 02:21:07;;;;;;;10.90;8.20;;;;;;;;;;5057406;28;20039;-81
2022/03/26 02:23:32;;;;;;;11.70;8.15;;;;;;;;;;5064668;28;20106;-80
2022/03/26 02:25:58;;;;;;;9.88;7.63;;;;;;;;;;5076871;28;20061;-81
2022/03/26 02:28:23;;;;;;;10.05;8.40;;;;;;;;;;5090383;28;20044;-81
2022/03/26 02:30:49;;;;;;;10.02;7.93;;;;;;;;;;5073368;28;20036;-80
2022/03/26 02:33:14;;;;;;;9.50;7.50;;;;;;;;;;5073481;28;20043;-81
2022/03/26 02:35:40;;;;;;;10.85;7.78;;;;;;;;;;5073515;28;20036;-81
2022/03/26 02:38:05;;;;;;;10.82;7.97;;;;;;;;;;5039765;28;20032;-81
2022/03/26 02:40:31;;;;;;;9.90;8.27;;;;;;;;;;5073188;28;20406;-81
2022/03/26 02:42:56;;;;;;;10.55;7.80;;;;;;;;;;5073413;28;20371;-81
2022/03/26 02:45:22;;;;;;;9.40;7.90;;;;;;;;;;5073187;28;20071;-81
2022/03/26 02:47:48;;;;;;;10.13;7.90;;;;;;;;;;5039881;28;20027;-81
2022/03/26 02:50:14;;;;;;;10.20;7.72;;;;;;;;;;5040417;28;20040;-81
2022/03/26 02:52:40;;;;;;;9.95;8.20;;;;;;;;;;5084541;28;20028;-81
2022/03/26 02:55:07;;;;;;;10.48;7.80;;;;;;;;;;5073020;28;20044;-81
2022/03/26 02:57:32;;;;;;;10.45;7.75;;;;;;;;;;5056655;28;20024;-81
2022/03/26 02:59:58;;;;;;;10.40;8.00;;;;;;;;;;5085831;28;20038;-81
2022/03/26 03:02:24;;;;;;;9.73;7.93;;;;;;;;;;5076580;28;20118;-81
2022/03/26 03:04:49;;;;;;;11.57;8.07;;;;;;;;;;5076549;28;20118;-81
2022/03/26 03:07:17;;;;;;;8.82;7.93;;;;;;;;;;5093127;28;20031;-81
2022/03/26 03:09:43;;;;;;;10.60;8.90;;;;;;;;;;5060415;28;20578;-81
2022/03/26 03:12:09;;;;;;;14.63;8.77;;;;;;;;;;5076601;28;20122;-80
2022/03/26 03:14:36;;;;;;;9.73;8.32;;;;;;;;;;5073399;28;20119;-80
2022/03/26 03:17:02;;;;;;;10.90;8.25;;;;;;;;;;5074050;28;20032;-81
2022/03/26 03:19:27;;;;;;;9.40;8.40;;;;;;;;;;5074273;28;20043;-81
2022/03/26 03:21:53;;;;;;;8.85;7.50;;;;;;;;;;5043264;28;20024;-81
2022/03/26 03:24:18;;;;;;;10.45;8.45;;;;;;;;;;5059353;28;20040;-80
2022/03/26 03:26:45;;;;;;;9.50;7.78;;;;;;;;;;5059975;28;20406;-81
2022/03/26 03:29:10;;;;;;;10.50;7.75;;;;;;;;;;5068262;28;20089;-81
2022/03/26 03:31:37;;;;;;;9.85;8.45;;;;;;;;;;5042974;28;20440;-81
2022/03/26 03:34:02;;;;;;;9.73;8.25;;;;;;;;;;5043319;28;20471;-81
2022/03/26 03:36:28;;;;;;;10.30;8.88;;;;;;;;;;5059335;28;20064;-81
2022/03/26 03:38:53;;;;;;;9.18;7.57;;;;;;;;;;5059619;28;20504;-81
2022/03/26 03:41:19;;;;;;;11.98;8.90;;;;;;;;;;5059585;28;20133;-81
2022/03/26 03:43:44;;;;;;;11.93;8.48;;;;;;;;;;5042875;28;20413;-80
2022/03/26 03:46:10;;;;;;;10.35;7.85;;;;;;;;;;5042627;28;20113;-81
2022/03/26 03:48:35;;;;;;;9.93;7.63;;;;;;;;;;5059204;28;20072;-81
2022/03/26 03:51:00;;;;;;;11.18;8.88;;;;;;;;;;5060400;28;20109;-81
2022/03/26 03:53:26;;;;;;;10.40;8.13;;;;;;;;;;5062289;28;20027;-81
2022/03/26 03:55:51;;;;;;;10.27;7.78;;;;;;;;;;5062439;28;20398;-81
2022/03/26 03:58:17;;;;;;;10.00;8.13;;;;;;;;;;5079299;28;20035;-81
2022/03/26 04:00:42;;;;;;;11.07;9.25;;;;;;;;;;5092661;28;20113;-81
2022/03/26 04:03:08;;;;;;;11.82;8.50;;;;;;;;;;5075821;28;20380;-81
2022/03/26 04:05:34;;;;;;;8.93;8.02;;;;;;;;;;5058850;28;20054;-81
2022/03/26 04:07:59;;;;;;;8.52;7.53;;;;;;;;;;5059190;28;20036;-81
2022/03/26 04:10:24;;;;;;;10.90;8.80;;;;;;;;;;5042459;28;20039;-81
2022/03/26 04:12:50;;;;;;;11.15;8.68;;;;;;;;;;5059172;28;20451;-80
2022/03/26 04:15:15;;;;;;;10.20;9.10;;;;;;;;;;5056183;28;20093;-81
2022/03/26 04:17:41;;;;;;;9.50;7.82;;;;;;;;;;5065328;28;20031;-81
2022/03/26 04:20:08;;;;;;;11.40;7.88;;;;;;;;;;5062041;28;20089;-81
2022/03/26 04:22:34;;;;;;;10.13;8.57;;;;;;;;;;5078651;28;20059;-80
2022/03/26 04:24:59;;;;;;;10.98;9.07;;;;;;;;;;5078608;28;20035;-80
2022/03/26 04:27:25;;;;;;;10.75;7.90;;;;;;;;;;5062160;28;20054;-81
2022/03/26 04:29:50;;;;;;;10.00;8.48;;;;;;;;;;5095326;28;20058;-81
2022/03/26 04:32:16;;;;;;;10.90;8.85;;;;;;;;;;5078367;28;20032;-81
2022/03/26 04:34:41;;;;;;;10.95;8.60;;;;;;;;;;5078348;28;20089;-81
2022/03/26 04:37:07;;;;;;;12.30;8.95;;;;;;;;;;5078369;28;20038;-81
2022/03/26 04:39:33;;;;;;;10.38;9.00;;;;;;;;;;5078493;28;20096;-81
2022/03/26 04:41:58;;;;;;;9.13;8.18;;;;;;;;;;5078261;28;20092;-81
2022/03/26 04:44:23;;;;;;;11.23;8.48;;;;;;;;;;5060711;28;20031;-81
2022/03/26 04:46:49;;;;;;;9.80;8.57;;;;;;;;;;5061196;28;20036;-81
2022/03/26 04:49:14;;;;;;;8.98;7.75;;;;;;;;;;5061568;28;20040;-81
2022/03/26 04:51:40;;;;;;;11.00;8.88;;;;;;;;;;5091803;28;20036;-80
2022/03/26 04:54:05;;;;;;;10.73;8.23;;;;;;;;;;5074239;28;20039;-81
2022/03/26 04:56:31;;;;;;;11.40;8.13;;;;;;;;;;5058174;28;20043;-80
2022/03/26 04:58:57;;;;;;;9.23;8.13;;;;;;;;;;5058042;28;20040;-81
2022/03/26 05:01:23;;;;;;;9.38;8.13;;;;;;;;;;5041718;28;20494;-81
2022/03/26 05:03:48;;;;;;;10.75;8.27;;;;;;;;;;5040884;28;20070;-81
2022/03/26 05:06:14;;;;;;;9.02;8.05;;;;;;;;;;5058001;28;20044;-80
2022/03/26 05:08:40;;;;;;;9.15;7.82;;;;;;;;;;5074579;28;20074;-80
2022/03/26 05:11:05;;;;;;;9.77;8.05;;;;;;;;;;5057505;28;20074;-81
2022/03/26 05:13:31;;;;;;;11.27;7.90;;;;;;;;;;5060918;28;20024;-81
2022/03/26 05:15:56;;;;;;;10.55;9.30;;;;;;;;;;5077458;28;20393;-81
2022/03/26 05:18:22;;;;;;;9.85;8.25;;;;;;;;;;5094113;28;20126;-81
2022/03/26 05:20:47;;;;;;;9.63;7.95;;;;;;;;;;5077649;28;20493;-81
2022/03/26 05:23:13;;;;;;;11.35;8.57;;;;;;;;;;5077213;28;20035;-81
2022/03/26 05:25:38;;;;;;;9.65;8.40;;;;;;;;;;5060640;28;20444;-81
2022/03/26 05:28:04;;;;;;;10.05;8.13;;;;;;;;;;5077513;28;20463;-81
2022/03/26 05:30:29;;;;;;;8.73;7.38;;;;;;;;;;5060826;28;20383;-80
2022/03/26 05:32:55;;;;;;;11.73;8.45;;;;;;;;;;5060644;28;20031;-81
2022/03/26 05:35:21;;;;;;;8.63;7.82;;;;;;;;;;5077608;28;20126;-81
2022/03/26 05:37:47;;;;;;;10.30;8.07;;;;;;;;;;5060956;28;20038;-80
2022/03/26 05:40:15;;;;;;;8.70;7.78;;;;;;;;;;5077258;28;20027;-81
2022/03/26 05:42:40;;;;;;;10.57;8.10;;;;;;;;;;5060417;28;20031;-81
2022/03/26 05:45:07;;;;;;;9.27;8.07;;;;;;;;;;5060213;28;20054;-81
2022/03/26 05:47:32;;;;;;;9.50;8.13;;;;;;;;;;5060321;28;20081;-81
2022/03/26 05:49:58;;;;;;;10.60;8.32;;;;;;;;;;5094373;28;20174;-81
2022/03/26 05:52:23;;;;;;;8.98;8.07;;;;;;;;;;5056762;28;20104;-81
2022/03/26 05:54:49;;;;;;;10.10;8.30;;;;;;;;;;5040330;28;20036;-80
2022/03/26 05:57:15;;;;;;;9.52;7.88;;;;;;;;;;5056776;28;20486;-81
2022/03/26 05:59:40;;;;;;;10.55;7.97;;;;;;;;;;5050605;28;20046;-81
2022/03/26 06:02:06;;;;;;;8.25;7.32;;;;;;;;;;5060821;28;20035;-81
2022/03/26 06:04:33;;;;;;;9.27;7.78;;;;;;;;;;5076994;28;20039;-81
2022/03/26 06:06:59;;;;;;;9.43;7.20;;;;;;;;;;5077575;28;20504;-83
2022/03/26 06:09:24;;;;;;;14.30;7.40;;;;;;;;;;5076071;28;20046;-83
2022/03/26 06:11:50;;;;;;;10.95;7.72;;;;;;;;;;5075355;28;20032;-82
2022/03/26 06:14:17;;;;;;;15.63;8.60;;;;;;;;;;5074623;28;20038;-83
2022/03/26 06:16:44;;;;;;;11.45;8.35;;;;;;;;;;5093632;28;20585;-83
2022/03/26 06:19:10;;;;;;;11.68;8.50;;;;;;;;;;5093965;28;20122;-81
2022/03/26 06:21:36;;;;;;;10.57;7.90;;;;;;;;;;5077641;28;20478;-83
2022/03/26 06:24:02;;;;;;;10.52;7.72;;;;;;;;;;5093366;28;20069;-83
2022/03/26 06:26:28;;;;;;;10.40;7.65;;;;;;;;;;5093675;28;20042;-82
2022/03/26 06:28:54;;;;;;;11.68;7.75;;;;;;;;;;5093367;28;20023;-82
2022/03/26 06:31:19;;;;;;;10.57;7.38;;;;;;;;;;5060148;28;20036;-83
2022/03/26 06:33:45;;;;;;;15.43;8.52;;;;;;;;;;5060547;28;20092;-81
2022/03/26 06:36:10;;;;;;;11.35;7.68;;;;;;;;;;5060055;28;20075;-83
2022/03/26 06:38:38;;;;;;;11.40;7.03;;;;;;;;;;5059635;28;20838;-82
2022/03/26 06:41:11;;;;;;;12.73;7.10;;;;;;;;;;5061186;28;20126;-82
2022/03/26 06:43:37;;;;;;;16.17;8.43;;;;;;;;;;5077160;28;20035;-83
2022/03/26 06:46:03;;;;;;;10.27;7.22;;;;;;;;;;5076798;28;20047;-81
2022/03/26 06:48:29;;;;;;;18.58;7.13;;;;;;;;;;5093235;28;20114;-82
2022/03/26 06:50:55;;;;;;;15.10;8.88;;;;;;;;;;5059783;28;20153;-81
2022/03/26 06:53:20;;;;;;;14.43;9.52;;;;;;;;;;5060841;28;20106;-81
2022/03/26 06:55:46;;;;;;;13.38;8.90;;;;;;;;;;5097284;28;20058;-81
2022/03/26 06:58:11;;;;;;;14.88;8.30;;;;;;;;;;5080034;28;20397;-81
2022/03/26 07:00:37;;;;;;;18.25;9.65;;;;;;;;;;5060023;28;20040;-81
2022/03/26 07:03:02;;;;;;;22.95;9.77;;;;;;;;;;5060378;28;20486;-81
2022/03/26 07:05:28;;;;;;;17.85;11.32;;;;;;;;;;5076735;28;20070;-81
2022/03/26 07:07:53;;;;;;;14.27;10.77;;;;;;;;;;5076584;28;20098;-81
2022/03/26 07:10:19;;;;;;;17.33;11.77;;;;;;;;;;5076900;28;20391;-81
2022/03/26 07:12:44;;;;;;;15.38;10.82;;;;;;;;;;5076705;28;20107;-81
2022/03/26 07:15:10;;;;;;;13.98;9.80;;;;;;;;;;5076519;28;20166;-81
2022/03/26 07:17:39;;;;;;;15.88;10.82;;;;;;;;;;5082722;28;20032;-81
2022/03/26 07:20:06;;;;;;;16.13;10.32;;;;;;;;;;5096978;28;20043;-81
2022/03/26 07:22:31;;;;;;;13.18;10.20;;;;;;;;;;5113427;28;20034;-81
2022/03/26 07:24:56;;;;;;;14.00;9.98;;;;;;;;;;5096965;28;20043;-81
2022/03/26 07:27:22;;;;;;;13.13;10.40;;;;;;;;;;5079575;28;20035;-81
2022/03/26 07:29:48;;;;;;;13.70;9.90;;;;;;;;;;5096641;28;20050;-80
2022/03/26 07:32:14;;;;;;;15.02;10.77;;;;;;;;;;5079972;28;20484;-81
2022/03/26 07:34:39;;;;;;;15.77;10.57;;;;;;;;;;5062750;28;20114;-80
2022/03/26 07:37:05;;;;;;;13.82;9.95;;;;;;;;;;5063090;28;20027;-80
2022/03/26 07:39:30;;;;;;;16.40;11.20;;;;;;;;;;5079908;28;20390;-81
2022/03/26 07:41:56;;;;;;;15.95;12.38;;;;;;;;;;5079554;28;20107;-80
2022/03/26 07:44:22;;;;;;;17.08;12.45;;;;;;;;;;5079334;28;20080;-81
2022/03/26 07:46:47;;;;;;;13.80;12.27;;;;;;;;;;5062429;28;20039;-81
2022/03/26 07:49:12;;;;;;;15.70;11.88;;;;;;;;;;5096549;28;20047;-80
2022/03/26 07:51:38;;;;;;;17.10;11.40;;;;;;;;;;5092697;28;20055;-80
2022/03/26 07:54:03;;;;;;;16.15;11.20;;;;;;;;;;5058765;28;20417;-81
2022/03/26 07:56:29;;;;;;;18.23;9.93;;;;;;;;;;5058781;28;20406;-80
2022/03/26 07:58:54;;;;;;;16.13;10.20;;;;;;;;;;5062204;28;20063;-80
2022/03/26 08:01:20;;;;;;;15.07;10.13;;;;;;;;;;5096004;28;20034;-81
2022/03/26 08:03:45;;;;;;;14.45;10.13;;;;;;;;;;5079350;28;20043;-81
2022/03/26 08:06:11;;;;;;;18.83;11.75;;;;;;;;;;5078620;28;20043;-79
2022/03/26 08:08:36;;;;;;;16.13;11.40;;;;;;;;;;5079092;28;20092;-79
2022/03/26 08:11:02;;;;;;;18.27;11.07;;;;;;;;;;5078876;28;20046;-79
2022/03/26 08:13:28;;;;;;;13.90;10.73;;;;;;;;;;5093565;28;20118;-78
2022/03/26 08:15:53;;;;;;;15.98;10.70;;;;;;;;;;5058635;28;20055;-79
2022/03/26 08:18:18;;;;;;;15.48;11.60;;;;;;;;;;5087195;28;20446;-79
2022/03/26 08:20:44;;;;;;;17.73;11.50;;;;;;;;;;5096036;28;20404;-78
2022/03/26 08:23:10;;;;;;;14.50;11.05;;;;;;;;;;5079040;28;20050;-79
2022/03/26 08:28:19;;;;;;;16.05;11.30;;;;;;;;;;5098529;28;20032;-79
2022/03/26 08:30:45;;;;;;;14.73;10.75;;;;;;;;;;5078514;28;20405;-79
2022/03/26 08:33:10;;;;;;;16.38;10.73;;;;;;;;;;5078341;28;20160;-79
2022/03/26 08:35:38;;;;;;;14.52;10.13;;;;;;;;;;5078524;28;20053;-81
2022/03/26 08:38:04;;;;;;;16.38;10.13;;;;;;;;;;5062211;28;20038;-79
2022/03/26 08:40:29;;;;;;;13.15;9.07;;;;;;;;;;5078643;28;20039;-79
2022/03/26 08:42:56;;;;;;;18.10;9.15;;;;;;;;;;5062012;28;20119;-79
2022/03/26 08:45:22;;;;;;;15.25;9.20;;;;;;;;;;5061671;28;20047;-79
2022/03/26 08:47:48;;;;;;;14.63;10.48;;;;;;;;;;5078400;28;20084;-80
2022/03/26 08:50:13;;;;;;;16.05;12.48;;;;;;;;;;5076483;28;20036;-79
2022/03/26 08:52:39;;;;;;;19.38;13.90;;;;;;;;;;5076861;28;20055;-80
2022/03/26 08:55:05;;;;;;;19.27;12.90;;;;;;;;;;5077974;28;20042;-79
2022/03/26 08:57:30;;;;;;;15.57;11.07;;;;;;;;;;5058236;28;20130;-79
2022/03/26 08:59:56;;;;;;;15.88;11.13;;;;;;;;;;5086891;28;20036;-80
2022/03/26 09:02:21;;;;;;;13.40;10.93;;;;;;;;;;5061286;28;20481;-80
2022/03/26 09:04:47;;;;;;;13.55;9.52;;;;;;;;;;5078064;28;20046;-80
2022/03/26 09:07:13;;;;;;;12.10;9.80;;;;;;;;;;5078166;28;20035;-80
2022/03/26 09:09:38;;;;;;;14.05;9.93;;;;;;;;;;5061200;28;20401;-79
2022/03/26 09:12:04;;;;;;;13.73;9.35;;;;;;;;;;5078143;28;20046;-80
2022/03/26 09:14:30;;;;;;;13.30;9.18;;;;;;;;;;5060704;28;20183;-80
2022/03/26 09:16:55;;;;;;;14.52;8.60;;;;;;;;;;5076669;28;20050;-80
2022/03/26 09:19:21;;;;;;;12.90;8.82;;;;;;;;;;5093914;28;20393;-80
2022/03/26 09:21:46;;;;;;;10.68;8.30;;;;;;;;;;5077769;28;20415;-80
2022/03/26 09:24:13;;;;;;;14.02;8.90;;;;;;;;;;5076931;28;20119;-79
2022/03/26 09:26:39;;;;;;;15.60;9.35;;;;;;;;;;5077842;28;20503;-79
2022/03/26 09:29:05;;;;;;;15.10;8.95;;;;;;;;;;5077752;28;20040;-81
2022/03/26 09:31:31;;;;;;;15.82;8.75;;;;;;;;;;5094174;28;20521;-80
2022/03/26 09:33:56;;;;;;;12.27;8.48;;;;;;;;;;5077483;28;20557;-80
2022/03/26 09:36:22;;;;;;;14.90;8.98;;;;;;;;;;5060742;28;20035;-78
2022/03/26 09:38:47;;;;;;;16.60;9.07;;;;;;;;;;5094110;28;20066;-78
2022/03/26 09:41:13;;;;;;;17.17;9.18;;;;;;;;;;5094256;28;20447;-77
2022/03/26 09:43:39;;;;;;;11.57;8.63;;;;;;;;;;5077455;28;20059;-77
2022/03/26 09:46:05;;;;;;;17.85;10.50;;;;;;;;;;5074563;28;20039;-77
2022/03/26 09:48:31;;;;;;;13.45;10.32;;;;;;;;;;5076955;28;20425;-77
2022/03/26 09:50:56;;;;;;;17.50;10.05;;;;;;;;;;5085771;28;20494;-77
2022/03/26 09:53:22;;;;;;;15.73;10.98;;;;;;;;;;5076569;28;20085;-77
2022/03/26 09:55:47;;;;;;;18.85;9.48;;;;;;;;;;5059199;28;20130;-77
2022/03/26 09:58:13;;;;;;;16.77;9.77;;;;;;;;;;5076611;28;20047;-76
2022/03/26 10:00:38;;;;;;;19.15;10.77;;;;;;;;;;5093748;28;20050;-77
2022/03/26 10:03:04;;;;;;;14.70;9.98;;;;;;;;;;5076770;28;20042;-77
2022/03/26 10:05:34;;;;;;;22.70;16.48;;;;;;;;;;5073403;28;20039;-76
2022/03/26 10:08:14;;;;;;;22.20;15.23;;;;;;;;;;5056540;28;20530;-77
2022/03/26 10:10:45;;;;;;;20.50;15.25;;;;;;;;;;5085021;28;20494;-77
2022/03/26 10:13:10;;;;;;;18.33;15.50;;;;;;;;;;5060048;28;20028;-77
2022/03/26 10:15:36;;;;;;;18.65;14.52;;;;;;;;;;5070271;28;20477;-77
2022/03/26 10:18:08;;;;;;;19.65;13.98;;;;;;;;;;5079811;28;20035;-77
2022/03/26 10:20:34;;;;;;;18.90;14.50;;;;;;;;;;5040295;28;20054;-77
2022/03/26 10:22:59;;;;;;;17.15;13.27;;;;;;;;;;5056257;28;20057;-77
2022/03/26 10:25:25;;;;;;;18.25;13.38;;;;;;;;;;5073316;28;20036;-77
2022/03/26 10:27:56;;;;;;;19.50;12.10;;;;;;;;;;5074286;28;20036;-77
2022/03/26 10:32:38;;;;;;;21.17;13.15;;;;;;;;;;5077672;28;20182;-77
2022/03/26 10:33:21;;;;;;;20.35;13.75;;;;;;;;;;5094806;28;20051;-77
2022/03/26 10:36:00;;;;;;;19.15;12.73;;;;;;;;;;5084595;28;20044;-77
2022/03/26 10:38:32;;;;;;;18.45;11.65;;;;;;;;;;5096140;28;20036;-77
2022/03/26 10:41:02;;;;;;;17.55;11.63;;;;;;;;;;5078741;28;20044;-77
2022/03/26 10:43:28;;;;;;;20.00;11.93;;;;;;;;;;5077180;28;20123;-76
2022/03/26 10:45:55;;;;;;;18.27;11.07;;;;;;;;;;5077109;28;20115;-76
2022/03/26 10:48:39;;;;;;;15.02;10.38;;;;;;;;;;5076734;28;20112;-76
2022/03/26 10:51:11;;;;;;;19.80;11.50;;;;;;;;;;5078966;28;20040;-77
2022/03/26 10:53:38;;;;;;;15.25;10.65;;;;;;;;;;5097395;28;20465;-76
2022/03/26 10:56:04;;;;;;;19.02;10.93;;;;;;;;;;5080322;28;20572;-77
2022/03/26 10:58:31;;;;;;;19.73;12.07;;;;;;;;;;5097169;28;20039;-77
2022/03/26 11:00:57;;;;;;;18.20;12.27;;;;;;;;;;5097286;28;20032;-77
2022/03/26 11:03:23;;;;;;;23.05;16.00;;;;;;;;;;5080300;28;20062;-77
2022/03/26 11:05:48;;;;;;;25.77;16.23;;;;;;;;;;5097005;28;20035;-78
2022/03/26 11:08:14;;;;;;;26.55;18.90;;;;;;;;;;5079929;28;20084;-77
2022/03/26 11:10:39;;;;;;;26.05;17.77;;;;;;;;;;5061280;28;20105;-77
2022/03/26 11:13:05;;;;;;;22.88;15.27;;;;;;;;;;5060097;28;20593;-77
2022/03/26 11:15:42;;;;;;;20.33;15.40;;;;;;;;;;5062685;28;20047;-77
2022/03/26 11:18:47;;;;;;;17.90;13.95;;;;;;;;;;5087458;28;20052;-77
2022/03/26 11:21:47;;;;;;;21.25;14.15;;;;;;;;;;5068985;28;20584;-77
2022/03/26 11:24:12;;;;;;;23.70;14.18;;;;;;;;;;5071078;28;20509;-77
2022/03/26 11:26:45;;;;;;;21.75;13.80;;;;;;;;;;5076216;28;20060;-76
2022/03/26 11:29:16;;;;;;;;;;;;;;;;;;5077514;28;20043;-77
2022/03/26 11:31:57;;;;;;;15.88;10.30;;;;;;;;;;5076754;28;19918;-77
2022/03/26 11:34:23;;;;;;;15.63;11.32;;;;;;;;;;5075736;28;20103;-77
2022/03/26 11:36:51;;;;;;;13.68;10.57;;;;;;;;;;5042794;28;20039;-78
2022/03/26 11:39:18;;;;;;;14.75;10.55;;;;;;;;;;5075828;28;20489;-77
2022/03/26 11:41:47;;;;;;;16.20;10.23;;;;;;;;;;5075990;28;20406;-77
2022/03/26 11:44:13;;;;;;;14.43;9.73;;;;;;;;;;5059326;28;20035;-77
2022/03/26 11:52:15;;;;;;;18.38;11.85;;;;;;;;;;5089258;28;20126;-77
2022/03/26 11:54:41;;;;;;;16.88;11.88;;;;;;;;;;5112794;28;20031;-77
2022/03/26 11:57:25;;;;;;;16.88;11.65;;;;;;;;;;5079367;28;20043;-77
2022/03/26 11:59:52;;;;;;;15.27;10.32;;;;;;;;;;5075702;28;20032;-78
2022/03/26 12:02:28;;;;;;;17.35;10.52;;;;;;;;;;5042384;28;20032;-77
2022/03/26 12:04:58;;;;;;;17.83;10.70;;;;;;;;;;5076972;28;20031;-79
2022/03/26 12:07:31;;;;;;;12.45;10.35;;;;;;;;;;5077107;28;20413;-79
2022/03/26 12:10:09;;;;;;;15.15;10.77;;;;;;;;;;5061592;28;20125;-78
2022/03/26 12:12:57;;;;;;;16.20;10.27;;;;;;;;;;5059964;28;20101;-78
2022/03/26 12:15:23;;;;;;;11.80;8.95;;;;;;;;;;5111343;28;20042;-78
2022/03/26 12:17:53;;;;;;;17.10;8.85;;;;;;;;;;5062933;28;20039;-78
2022/03/26 12:20:26;;;;;;;10.63;8.45;;;;;;;;;;5076161;28;20098;-79
2022/03/26 12:23:03;;;;;;;13.05;9.50;;;;;;;;;;5075937;28;20040;-79
2022/03/26 12:25:53;;;;;;;15.35;9.63;;;;;;;;;;5076014;28;20032;-79
2022/03/26 12:28:25;;;;;;;14.85;9.45;;;;;;;;;;5077673;28;20040;-78
2022/03/26 12:30:52;;;;;;;17.63;9.00;;;;;;;;;;5075533;28;20059;-78
2022/03/26 12:33:18;;;;;;;18.45;9.52;;;;;;;;;;5058449;28;20282;-78
2022/03/26 12:35:45;;;;;;;15.68;9.13;;;;;;;;;;5058580;28;20082;-78
2022/03/26 12:38:10;;;;;;;16.58;9.32;;;;;;;;;;5058846;28;20115;-78
2022/03/26 12:40:38;;;;;;;16.75;9.52;;;;;;;;;;5058467;28;20068;-78
2022/03/26 12:43:07;;;;;;;17.10;8.93;;;;;;;;;;5059065;28;20505;-78
2022/03/26 12:45:34;;;;;;;14.02;7.68;;;;;;;;;;5092030;28;20036;-78
2022/03/26 12:48:00;;;;;;;22.60;10.30;;;;;;;;;;5074488;28;20032;-78
2022/03/26 12:50:26;;;;;;;17.52;9.90;;;;;;;;;;5058467;28;20116;-77
2022/03/26 12:52:51;;;;;;;17.67;9.07;;;;;;;;;;5071028;28;20032;-78
2022/03/26 12:55:18;;;;;;;15.65;9.13;;;;;;;;;;5058203;28;20473;-77
2022/03/26 13:00:29;;;;;;;17.98;8.73;;;;;;;;;;5081331;28;20094;-77
2022/03/26 13:03:09;;;;;;;12.77;8.68;;;;;;;;;;5058252;28;20168;-77
2022/03/26 13:05:36;;;;;;;13.30;8.50;;;;;;;;;;5042411;28;20485;-77
2022/03/26 13:08:02;;;;;;;12.63;8.45;;;;;;;;;;5074494;28;20062;-77
2022/03/26 13:10:31;;;;;;;16.08;9.60;;;;;;;;;;5057861;28;20494;-77
2022/03/26 13:12:57;;;;;;;12.85;8.23;;;;;;;;;;5074932;28;20071;-77
2022/03/26 13:15:22;;;;;;;11.23;8.55;;;;;;;;;;5075898;28;20101;-77
2022/03/26 13:17:48;;;;;;;11.50;8.18;;;;;;;;;;5091384;28;20093;-78
2022/03/26 13:20:27;;;;;;;12.85;7.85;;;;;;;;;;5041177;28;20398;-78
2022/03/26 13:22:55;;;;;;;10.23;7.32;;;;;;;;;;5074216;28;20035;-78
2022/03/26 13:25:21;;;;;;;11.93;7.30;;;;;;;;;;5074847;28;20028;-78
2022/03/26 13:27:46;;;;;;;12.27;7.82;;;;;;;;;;5057722;28;20035;-77
2022/03/26 13:30:12;;;;;;;12.55;7.40;;;;;;;;;;5073875;28;20055;-77
2022/03/26 13:32:41;;;;;;;11.35;7.97;;;;;;;;;;5057387;28;20646;-77
2022/03/26 13:35:07;;;;;;;10.25;7.60;;;;;;;;;;5057542;28;20032;-77
2022/03/26 13:37:33;;;;;;;10.50;7.03;;;;;;;;;;5041036;28;20479;-78
2022/03/26 13:40:01;;;;;;;10.77;7.03;;;;;;;;;;5040982;28;20035;-78
2022/03/26 13:42:27;;;;;;;11.43;6.68;;;;;;;;;;5073921;28;20040;-78
2022/03/26 13:44:54;;;;;;;11.93;7.75;;;;;;;;;;5057275;28;20024;-78
2022/03/26 13:47:20;;;;;;;12.82;6.85;;;;;;;;;;5073895;28;20043;-79
2022/03/26 13:49:47;;;;;;;12.43;7.05;;;;;;;;;;5074246;28;20043;-79
2022/03/26 13:52:29;;;;;;;10.63;7.45;;;;;;;;;;5064949;28;20040;-79
2022/03/26 13:54:54;;;;;;;;;;;;;;;;;;5040965;28;20024;-79
2022/03/26 13:57:30;;;;;;;14.13;7.70;;;;;;;;;;5094197;28;20040;-79
2022/03/26 13:59:56;;;;;;;11.57;6.88;;;;;;;;;;5090942;28;20040;-78
2022/03/26 14:02:26;;;;;;;10.55;6.53;;;;;;;;;;5056692;28;20505;-79
2022/03/26 14:04:52;;;;;;;11.85;7.47;;;;;;;;;;5056959;28;20040;-79
2022/03/26 14:07:19;;;;;;;9.20;7.05;;;;;;;;;;5057343;28;20039;-78
2022/03/26 14:09:54;;;;;;;8.73;6.47;;;;;;;;;;5074082;28;20119;-79
2022/03/26 14:12:20;;;;;;;10.65;7.35;;;;;;;;;;5056957;28;20549;-79
2022/03/26 14:14:45;;;;;;;9.77;6.70;;;;;;;;;;5039764;28;20043;-79
2022/03/26 14:17:11;;;;;;;11.57;6.97;;;;;;;;;;5059214;28;20520;-79
2022/03/26 14:19:36;;;;;;;10.73;6.50;;;;;;;;;;5093994;28;20058;-78
2022/03/26 14:22:03;;;;;;;8.65;7.00;;;;;;;;;;5076941;28;20035;-78
2022/03/26 14:24:30;;;;;;;11.13;6.80;;;;;;;;;;5057048;28;20055;-78
2022/03/26 14:26:56;;;;;;;12.18;7.10;;;;;;;;;;5081697;28;20031;-78
2022/03/26 14:29:23;;;;;;;11.10;7.90;;;;;;;;;;5093878;28;20042;-79
2022/03/26 14:31:48;;;;;;;14.15;7.40;;;;;;;;;;5063034;28;20092;-79
2022/03/26 14:34:14;;;;;;;10.15;7.15;;;;;;;;;;5056894;28;20122;-79
2022/03/26 14:36:39;;;;;;;12.73;8.48;;;;;;;;;;5056509;28;20032;-78
2022/03/26 14:39:05;;;;;;;12.38;7.72;;;;;;;;;;5056509;28;20047;-79
2022/03/26 14:41:30;;;;;;;8.93;6.10;;;;;;;;;;5056339;28;20036;-79